Time;durP1;ratioP1;P1;durP2;ratioP2;P2;SDS_P1;SDS_P2;PMS_P1;PMS_P2;Temp;Humidity;BMP_temperature;BMP_pressure;BME280_temperature;BME280_humidity;BME280_pressure;Samples;Min_cycle;Max_cycle;Signal;HPM_P1;HPM_P2
2023/02/01 00:00:29;;;;;;;;;;;;;;;10.25;48.54;100873.69;6211275;23;20127;-83
2023/02/01 00:02:55;;;;;;;;;;;;;;;10.23;48.35;100863.22;6211412;23;19908;-83
2023/02/01 00:05:20;;;;;;;;;;;;;;;10.23;48.58;100863.22;6211305;23;19919;-83
2023/02/01 00:07:49;;;;;;;;;;;;;;;10.24;48.55;100869.38;6211719;23;19907;-82
2023/02/01 00:10:14;;;;;;;;;;;;;;;10.27;48.54;100874.25;6212526;23;19934;-83
2023/02/01 00:12:39;;;;;;;;;;;;;;;10.28;48.65;100865.16;6212018;23;19994;-82
2023/02/01 00:15:05;;;;;;;;;;;;;;;10.24;48.59;100858.66;6211102;23;19908;-82
2023/02/01 00:17:30;;;;;;;;;;;;;;;10.27;48.65;100859.00;6211452;23;19942;-82
2023/02/01 00:19:56;;;;;;;;;;;;;;;10.29;48.19;100845.34;6211303;22;19892;-86
2023/02/01 00:22:21;;;;;;;;;;;;;;;10.26;48.18;100849.34;6210331;23;19994;-86
2023/02/01 00:24:46;;;;;;;;;;;;;;;10.27;48.38;100848.28;6209150;23;19908;-86
2023/02/01 00:27:17;;;;;;;;;;;;;;;10.25;48.24;100849.59;6210012;23;19984;-86
2023/02/01 00:29:43;;;;;;;;;;;;;;;10.23;48.19;100846.31;6210958;23;20731;-87
2023/02/01 00:32:08;;;;;;;;;;;;;;;10.26;48.22;100845.84;6210594;23;19923;-85
2023/02/01 00:34:33;;;;;;;;;;;;;;;10.23;47.99;100846.31;6210052;23;20350;-86
2023/02/01 00:37:00;;;;;;;;;;;;;;;10.24;48.21;100848.78;6209645;23;19912;-85
2023/02/01 00:39:25;;;;;;;;;;;;;;;10.27;48.21;100847.47;6210731;23;19908;-85
2023/02/01 00:41:50;;;;;;;;;;;;;;;10.26;48.44;100846.66;6210135;23;19935;-85
2023/02/01 00:44:16;;;;;;;;;;;;;;;10.32;48.18;100863.63;6210375;23;19908;-85
2023/02/01 00:46:41;;;;;;;;;;;;;;;10.31;48.43;100848.59;6209566;23;19908;-86
2023/02/01 00:49:08;;;;;;;;;;;;;;;10.31;48.12;100848.59;6209292;23;19912;-85
2023/02/01 00:51:34;;;;;;;;;;;;;;;10.42;48.08;100861.09;6210910;23;19923;-86
2023/02/01 00:53:59;;;;;;;;;;;;;;;10.36;48.10;100837.16;6210291;23;19914;-85
2023/02/01 00:56:27;;;;;;;;;;;;;;;10.35;48.00;100840.88;6210825;23;20014;-85
2023/02/01 00:58:52;;;;;;;;;;;;;;;10.27;48.14;100832.22;6208630;23;19908;-85
2023/02/01 01:01:19;;;;;;;;;;;;;;;10.31;48.13;100843.25;6210784;23;19915;-85
2023/02/01 01:03:46;;;;;;;;;;;;;;;10.29;48.27;100840.81;6183321;23;19908;-85
2023/02/01 01:06:13;;;;;;;;;;;;;;;10.28;48.33;100849.09;6210929;23;19977;-86
2023/02/01 01:08:39;;;;;;;;;;;;;;;10.26;48.40;100843.97;6209417;23;19908;-85
2023/02/01 01:11:06;;;;;;;;;;;;;;;10.29;48.23;100845.34;6208730;23;19912;-85
2023/02/01 01:13:32;;;;;;;;;;;;;;;10.30;48.33;100830.91;6211527;23;19907;-85
2023/02/01 01:16:01;;;;;;;;;;;;;;;10.34;48.25;100849.97;6211292;23;20014;-84
2023/02/01 01:18:26;;;;;;;;;;;;;;;10.33;48.12;100845.69;6211019;23;20473;-85
2023/02/01 01:20:52;;;;;;;;;;;;;;;10.31;48.12;100848.59;6210254;23;19920;-86
2023/02/01 01:23:17;;;;;;;;;;;;;;;10.22;48.29;100842.81;6210515;23;19914;-85
2023/02/01 01:25:42;;;;;;;;;;;;;;;10.23;48.21;100848.97;6211389;23;19912;-85
2023/02/01 01:28:08;;;;;;;;;;;;;;;10.26;48.13;100851.19;6210645;23;19987;-85
2023/02/01 01:30:34;;;;;;;;;;;;;;;10.24;48.00;100846.09;6211506;23;19915;-85
2023/02/01 01:33:00;;;;;;;;;;;;;;;10.21;48.52;100837.72;6210303;23;19912;-85
2023/02/01 01:35:25;;;;;;;;;;;;;;;10.17;48.08;100829.31;6211375;23;19912;-85
2023/02/01 01:37:50;;;;;;;;;;;;;;;10.19;48.44;100834.44;6210482;23;19963;-85
2023/02/01 01:40:16;;;;;;;;;;;;;;;10.18;48.34;100832.81;6211364;23;20287;-85
2023/02/01 01:42:42;;;;;;;;;;;;;;;10.23;48.24;100825.72;6210597;23;19908;-86
2023/02/01 01:45:28;;;;;;;;;;;;;;;10.25;48.21;100828.97;6210818;23;19911;-85
2023/02/01 01:47:58;;;;;;;;;;;;;;;10.21;48.16;100825.13;6182766;23;19912;-85
2023/02/01 01:50:39;;;;;;;;;;;;;;;10.18;48.42;100816.75;6211783;23;19990;-86
2023/02/01 01:53:05;;;;;;;;;;;;;;;10.19;48.62;100824.53;6209898;23;19911;-85
2023/02/01 01:55:33;;;;;;;;;;;;;;;10.18;48.42;100830.94;6210506;23;19939;-85
2023/02/01 01:58:05;;;;;;;;;;;;;;;10.21;48.54;100832.34;6209884;23;20019;-86
2023/02/01 02:00:30;;;;;;;;;;;;;;;10.23;48.31;100827.56;6210808;23;19987;-85
2023/02/01 02:03:03;;;;;;;;;;;;;;;10.16;48.61;100827.72;6210210;23;19943;-86
2023/02/01 02:05:29;;;;;;;;;;;;;;;10.15;48.57;100830.63;6210742;23;19918;-85
2023/02/01 02:07:57;;;;;;;;;;;;;;;10.13;48.49;100825.53;6209997;23;19912;-85
2023/02/01 02:10:59;;;;;;;;;;;;;;;10.11;48.45;100824.16;6211203;23;19987;-85
2023/02/01 02:13:09;;;;;;;;;;;;;;;10.04;48.67;100826.16;6210793;23;19912;-86
2023/02/01 02:15:36;;;;;;;;;;;;;;;9.99;48.48;100830.38;6210984;23;19919;-85
2023/02/01 02:18:08;;;;;;;;;;;;;;;9.99;48.81;100825.03;6209773;23;19912;-85
2023/02/01 02:20:37;;;;;;;;;;;;;;;10.02;48.34;100820.22;6211678;23;19918;-85
2023/02/01 02:23:06;;;;;;;;;;;;;;;10.00;48.39;100810.56;6209385;23;19907;-85
2023/02/01 02:25:37;;;;;;;;;;;;;;;9.98;48.39;100818.03;6211396;23;19908;-85
2023/02/01 02:28:21;;;;;;;;;;;;;;;9.91;48.58;100822.75;6210344;23;19947;-85
2023/02/01 02:31:05;;;;;;;;;;;;;;;9.96;48.48;100822.03;6212028;23;19958;-85
2023/02/01 02:33:46;;;;;;;;;;;;;;;9.95;48.94;100813.19;6212492;23;19908;-85
2023/02/01 02:36:20;;;;;;;;;;;;;;;10.02;48.60;100825.59;6212419;23;19929;-85
2023/02/01 02:38:55;;;;;;;;;;;;;;;10.02;48.70;100822.91;6210894;23;19908;-85
2023/02/01 02:47:26;;;;;;;;;;;;;;;10.09;48.65;100821.72;6211228;23;19931;-86
2023/02/01 02:55:30;;;;;;;;;;;;;;;10.07;48.30;100821.16;6212316;23;19919;-85
2023/02/01 03:06:14;;;;;;;;;;;;;;;9.91;49.08;100806.69;6211196;23;20386;-85
2023/02/01 03:08:45;;;;;;;;;;;;;;;9.90;49.17;100805.06;6211603;23;19907;-85
2023/02/01 03:11:12;;;;;;;;;;;;;;;9.98;48.72;100810.00;6211914;23;20492;-86
2023/02/01 03:13:43;;;;;;;;;;;;;;;10.04;48.54;100805.53;6209240;23;19912;-85
2023/02/01 03:16:09;;;;;;;;;;;;;;;10.00;48.86;100810.56;6210681;23;19916;-85
2023/02/01 03:18:40;;;;;;;;;;;;;;;10.05;48.73;100803.69;6212386;23;19914;-85
2023/02/01 03:21:12;;;;;;;;;;;;;;;10.10;48.78;100803.78;6211047;23;19923;-84
2023/02/01 03:23:40;;;;;;;;;;;;;;;10.12;48.62;100810.50;6211652;23;19908;-85
2023/02/01 03:26:09;;;;;;;;;;;;;;;10.17;48.95;100807.91;6208948;23;20239;-86
2023/02/01 03:28:36;;;;;;;;;;;;;;;10.20;48.53;100811.97;6212099;23;20316;-85
2023/02/01 03:31:02;;;;;;;;;;;;;;;10.19;48.71;100813.00;6211422;23;19908;-84
2023/02/01 03:33:29;;;;;;;;;;;;;;;10.16;48.85;100802.81;6211793;23;19915;-85
2023/02/01 03:36:07;;;;;;;;;;;;;;;10.19;49.05;100792.41;6209820;23;19998;-86
2023/02/01 03:38:37;;;;;;;;;;;;;;;10.18;48.75;100790.78;6209273;23;19912;-85
2023/02/01 03:41:11;;;;;;;;;;;;;;;10.16;48.73;100792.09;6209624;23;19908;-86
2023/02/01 03:43:57;;;;;;;;;;;;;;;10.16;48.86;100786.72;6210432;23;20290;-86
2023/02/01 03:46:32;;;;;;;;;;;;;;;10.25;48.75;100779.97;6209574;23;19995;-85
2023/02/01 03:49:00;;;;;;;;;;;;;;;10.26;48.64;100782.38;6210338;23;19962;-86
2023/02/01 03:51:25;;;;;;;;;;;;;;;10.18;48.77;100773.91;6211259;23;19937;-85
2023/02/01 03:53:51;;;;;;;;;;;;;;;10.16;48.74;100776.03;6184168;23;19907;-85
2023/02/01 03:56:18;;;;;;;;;;;;;;;10.17;48.91;100766.94;6211040;23;19916;-85
2023/02/01 03:58:58;;;;;;;;;;;;;;;10.14;49.30;100767.44;6210209;23;19915;-85
2023/02/01 04:01:23;;;;;;;;;;;;;;;10.13;48.87;100763.13;6184362;23;20046;-85
2023/02/01 04:03:50;;;;;;;;;;;;;;;10.10;48.72;100758.28;6210653;23;19943;-86
2023/02/01 04:06:16;;;;;;;;;;;;;;;10.08;49.01;100752.34;6211624;23;19908;-85
2023/02/01 04:08:41;;;;;;;;;;;;;;;10.09;48.63;100748.63;6210616;23;19908;-86
2023/02/01 04:11:06;;;;;;;;;;;;;;;10.12;48.62;100750.81;6210520;23;19912;-85
2023/02/01 04:13:32;;;;;;;;;;;;;;;10.12;48.55;100753.47;6183592;23;19908;-85
2023/02/01 04:15:57;;;;;;;;;;;;;;;10.06;48.57;100739.22;6182991;23;19920;-85
2023/02/01 04:18:22;;;;;;;;;;;;;;;9.99;48.78;100744.72;6209286;23;20243;-85
2023/02/01 04:20:48;;;;;;;;;;;;;;;10.01;48.60;100739.13;6208970;23;20026;-85
2023/02/01 04:23:15;;;;;;;;;;;;;;;10.00;48.96;100746.34;6182997;23;19912;-85
2023/02/01 04:25:40;;;;;;;;;;;;;;;9.97;48.97;100736.13;6210376;23;19915;-85
2023/02/01 04:28:06;;;;;;;;;;;;;;;10.00;48.65;100738.31;6209172;23;19911;-85
2023/02/01 04:30:32;;;;;;;;;;;;;;;10.03;48.72;100728.16;6209480;23;19987;-85
2023/02/01 04:32:57;;;;;;;;;;;;;;;10.04;48.51;100737.81;6208350;23;19918;-86
2023/02/01 04:35:23;;;;;;;;;;;;;;;10.04;48.57;100729.78;6210205;23;19926;-85
2023/02/01 04:37:48;;;;;;;;;;;;;;;10.02;48.56;100729.22;6208344;23;20246;-85
2023/02/01 04:40:14;;;;;;;;;;;;;;;10.08;48.77;100731.75;6210452;23;19908;-85
2023/02/01 04:42:39;;;;;;;;;;;;;;;10.08;48.62;100722.91;6208812;23;19915;-85
2023/02/01 04:45:05;;;;;;;;;;;;;;;10.09;48.74;100727.19;6209385;23;19922;-85
2023/02/01 04:47:30;;;;;;;;;;;;;;;10.09;48.86;100719.97;6211500;23;19908;-85
2023/02/01 04:49:55;;;;;;;;;;;;;;;10.15;48.55;100720.84;6211995;23;19987;-85
2023/02/01 04:52:21;;;;;;;;;;;;;;;10.17;48.57;100724.91;6211187;23;19916;-84
2023/02/01 04:54:46;;;;;;;;;;;;;;;10.19;48.55;100721.97;6210589;23;19974;-85
2023/02/01 04:57:13;;;;;;;;;;;;;;;10.21;48.85;100710.00;6211522;23;20238;-85
2023/02/01 04:59:39;;;;;;;;;;;;;;;10.23;49.02;100720.47;6211985;23;19979;-84
2023/02/01 05:02:04;;;;;;;;;;;;;;;10.25;49.03;100727.22;6211583;23;20331;-84
2023/02/01 05:04:29;;;;;;;;;;;;;;;10.30;48.72;100729.16;6184141;23;19912;-86
2023/02/01 05:06:55;;;;;;;;;;;;;;;10.29;48.63;100714.94;6210381;23;19914;-84
2023/02/01 05:09:21;;;;;;;;;;;;;;;10.30;48.79;100715.75;6211690;23;19958;-84
2023/02/01 05:14:31;;;;;;;;;;;;;;;10.34;48.71;100722.22;6210976;23;20002;-85
2023/02/01 05:16:56;;;;;;;;;;;;;;;10.38;48.39;100720.69;6209500;23;19939;-84
2023/02/01 05:19:21;;;;;;;;;;;;;;;10.36;48.78;100725.47;6184507;23;19980;-84
2023/02/01 05:21:47;;;;;;;;;;;;;;;10.34;48.67;100719.56;6210900;23;20209;-85
2023/02/01 05:24:13;;;;;;;;;;;;;;;10.38;48.82;100715.31;6211393;23;20256;-85
2023/02/01 05:26:42;;;;;;;;;;;;;;;10.44;49.02;100714.34;6210843;23;19989;-85
2023/02/01 05:29:08;;;;;;;;;;;;;;;10.51;48.70;100714.97;6183581;23;19912;-85
2023/02/01 05:31:33;;;;;;;;;;;;;;;10.54;48.33;100711.78;6211747;23;20284;-86
2023/02/01 05:33:59;;;;;;;;;;;;;;;10.55;48.47;100713.41;6211348;23;20283;-85
2023/02/01 05:36:24;;;;;;;;;;;;;;;10.54;48.43;100710.97;6211794;23;19916;-85
2023/02/01 05:38:50;;;;;;;;;;;;;;;10.50;48.28;100720.56;6209631;23;20352;-85
2023/02/01 05:41:15;;;;;;;;;;;;;;;10.52;48.07;100716.59;6211586;23;20336;-85
2023/02/01 05:43:40;;;;;;;;;;;;;;;10.55;48.44;100713.41;6211957;23;20125;-85
2023/02/01 05:46:06;;;;;;;;;;;;;;;10.57;48.00;100707.78;6211737;23;20043;-85
2023/02/01 05:48:31;;;;;;;;;;;;;;;10.53;48.02;100701.31;6210841;23;19908;-86
2023/02/01 05:50:57;;;;;;;;;;;;;;;10.50;48.20;100704.50;6210961;23;19958;-85
2023/02/01 05:53:22;;;;;;;;;;;;;;;10.52;48.48;100708.53;6211489;23;19908;-85
2023/02/01 05:55:47;;;;;;;;;;;;;;;10.52;48.52;100715.78;6210781;23;19935;-85
2023/02/01 05:58:13;;;;;;;;;;;;;;;10.54;48.43;100708.28;6211346;23;19916;-85
2023/02/01 06:00:38;;;;;;;;;;;;;;;10.54;48.32;100711.78;6211113;23;19912;-85
2023/02/01 06:03:04;;;;;;;;;;;;;;;10.59;48.12;100709.19;6210158;23;19912;-85
2023/02/01 06:05:29;;;;;;;;;;;;;;;10.59;48.37;100700.31;6211646;23;19908;-85
2023/02/01 06:07:55;;;;;;;;;;;;;;;10.59;48.53;100708.34;6210274;23;19939;-85
2023/02/01 06:10:20;;;;;;;;;;;;;;;10.56;48.40;100701.63;6211074;23;19983;-85
2023/02/01 06:12:46;;;;;;;;;;;;;;;10.57;48.45;100703.25;6210588;23;19942;-86
2023/02/01 06:15:12;;;;;;;;;;;;;;;10.66;48.21;100708.19;6210715;23;19943;-85
2023/02/01 06:17:38;;;;;;;;;;;;;;;10.62;47.99;100707.88;6211375;23;19912;-84
2023/02/01 06:22:37;;;;;;;;;;;;;;;10.50;48.27;100708.00;6211032;23;19919;-84
2023/02/01 06:25:04;;;;;;;;;;;;;;;10.55;48.14;100713.41;6210414;23;19912;-84
2023/02/01 06:27:29;;;;;;;;;;;;;;;10.63;48.16;100708.69;6212264;23;19934;-84
2023/02/01 06:29:55;;;;;;;;;;;;;;;10.53;48.07;100715.53;6211081;23;20327;-85
2023/02/01 06:32:20;;;;;;;;;;;;;;;10.55;48.15;100707.25;6210093;23;20066;-83
2023/02/01 06:34:45;;;;;;;;;;;;;;;10.51;48.08;100704.25;6209650;23;19990;-85
2023/02/01 06:37:11;;;;;;;;;;;;;;;10.54;48.42;100701.06;6209194;23;19916;-84
2023/02/01 06:39:36;;;;;;;;;;;;;;;10.48;48.41;100699.41;6211294;23;19908;-85
2023/02/01 06:42:02;;;;;;;;;;;;;;;10.52;48.16;100700.50;6209620;23;19916;-84
2023/02/01 06:44:27;;;;;;;;;;;;;;;10.45;48.41;100699.91;6210356;23;19912;-84
2023/02/01 06:46:54;;;;;;;;;;;;;;;10.48;48.39;100694.03;6210852;23;20212;-84
2023/02/01 06:49:19;;;;;;;;;;;;;;;10.47;48.51;100689.75;6210915;23;20248;-84
2023/02/01 06:51:45;;;;;;;;;;;;;;;10.47;48.39;100688.94;6210922;23;19908;-85
2023/02/01 06:54:10;;;;;;;;;;;;;;;10.49;48.23;100687.63;6210540;23;19916;-83
2023/02/01 06:56:36;;;;;;;;;;;;;;;10.51;48.38;100703.44;6210154;23;20241;-83
2023/02/01 06:59:03;;;;;;;;;;;;;;;10.44;48.60;100681.41;6210552;23;19962;-82
2023/02/01 07:01:29;;;;;;;;;;;;;;;10.45;48.83;100691.84;6211191;23;19912;-83
2023/02/01 07:03:54;;;;;;;;;;;;;;;10.47;48.30;100702.31;6210003;23;19934;-83
2023/02/01 07:06:20;;;;;;;;;;;;;;;10.43;48.55;100701.22;6210755;23;20209;-83
2023/02/01 07:08:45;;;;;;;;;;;;;;;10.41;49.05;100701.47;6209376;23;19914;-85
2023/02/01 07:11:12;;;;;;;;;;;;;;;10.50;48.80;100696.47;6209745;23;19912;-83
2023/02/01 07:13:37;;;;;;;;;;;;;;;10.51;48.85;100688.19;6210769;23;20229;-83
2023/02/01 07:16:04;;;;;;;;;;;;;;;10.51;49.19;100704.25;6210295;23;19987;-83
2023/02/01 07:18:29;;;;;;;;;;;;;;;10.61;48.60;100698.22;6210141;23;19912;-83
2023/02/01 07:20:56;;;;;;;;;;;;;;;10.65;49.02;100703.88;6210698;23;19919;-83
2023/02/01 07:23:21;;;;;;;;;;;;;;;10.63;48.83;100696.09;6211000;23;19915;-83
2023/02/01 07:25:47;;;;;;;;;;;;;;;10.66;48.85;100694.78;6211008;23;19908;-83
2023/02/01 07:28:12;;;;;;;;;;;;;;;10.63;48.85;100689.94;6210155;23;19912;-83
2023/02/01 07:30:38;;;;;;;;;;;;;;;10.67;49.00;100691.84;6210822;23;19915;-83
2023/02/01 07:33:03;;;;;;;;;;;;;;;10.69;48.98;100683.56;6210121;23;19916;-83
2023/02/01 07:35:28;;;;;;;;;;;;;;;10.73;49.11;100687.34;6208986;23;20151;-83
2023/02/01 07:37:54;;;;;;;;;;;;;;;10.77;49.15;100685.78;6208344;23;19915;-83
2023/02/01 07:40:24;;;;;;;;;;;;;;;10.78;49.01;100677.53;6210282;23;20001;-83
2023/02/01 07:42:50;;;;;;;;;;;;;;;10.80;48.86;100682.63;6210802;23;19911;-84
2023/02/01 07:45:15;;;;;;;;;;;;;;;10.73;49.20;100690.03;6209054;23;19927;-83
2023/02/01 07:47:41;;;;;;;;;;;;;;;10.76;48.88;100681.50;6210683;23;19915;-83
2023/02/01 07:50:06;;;;;;;;;;;;;;;10.76;48.90;100689.53;6208400;23;19912;-83
2023/02/01 07:52:32;;;;;;;;;;;;;;;10.73;49.10;100685.50;6210513;23;19916;-83
2023/02/01 07:54:57;;;;;;;;;;;;;;;10.76;48.90;100679.63;6209715;23;19912;-83
2023/02/01 07:57:23;;;;;;;;;;;;;;;10.71;49.03;100678.75;6210118;23;19908;-83
2023/02/01 08:02:32;;;;;;;;;;;;;;;10.75;49.00;100675.31;6211069;23;20047;-83
2023/02/01 08:04:57;;;;;;;;;;;;;;;10.73;49.33;100676.63;6210993;23;19936;-83
2023/02/01 08:07:23;;;;;;;;;;;;;;;10.76;48.88;100668.09;6211773;23;20346;-83
2023/02/01 08:09:48;;;;;;;;;;;;;;;10.77;49.08;100689.31;6212134;23;20358;-84
2023/02/01 08:12:13;;;;;;;;;;;;;;;10.77;49.11;100675.06;6211370;23;19919;-84
2023/02/01 08:14:40;;;;;;;;;;;;;;;10.75;49.09;100672.66;6211705;23;19912;-83
2023/02/01 08:17:06;;;;;;;;;;;;;;;10.75;49.09;100669.16;6211556;23;19983;-84
2023/02/01 08:19:31;;;;;;;;;;;;;;;10.70;49.18;100675.28;6211164;23;19928;-84
2023/02/01 08:21:57;;;;;;;;;;;;;;;10.76;48.93;100676.13;6211494;23;19919;-83
2023/02/01 08:24:22;;;;;;;;;;;;;;;10.69;48.85;100680.88;6210755;23;19908;-83
2023/02/01 08:26:47;;;;;;;;;;;;;;;10.63;48.91;100687.25;6212234;23;19946;-83
2023/02/01 08:29:13;;;;;;;;;;;;;;;10.56;49.25;100685.56;6210238;23;19908;-83
2023/02/01 08:31:43;;;;;;;;;;;;;;;10.55;49.15;100681.25;6211550;23;19908;-83
2023/02/01 08:34:08;;;;;;;;;;;;;;;10.51;49.16;100688.19;6210528;23;19916;-83
2023/02/01 08:36:34;;;;;;;;;;;;;;;10.48;49.66;100691.34;6212058;23;19963;-83
2023/02/01 08:38:59;;;;;;;;;;;;;;;10.54;49.44;100684.19;6211396;23;19931;-82
2023/02/01 08:41:26;;;;;;;;;;;;;;;10.45;49.51;100683.00;6211222;23;19908;-82
2023/02/01 08:43:53;;;;;;;;;;;;;;;10.48;49.49;100687.88;6211518;23;19941;-85
2023/02/01 08:46:19;;;;;;;;;;;;;;;10.43;49.44;100685.94;6211070;23;20340;-84
2023/02/01 08:48:45;;;;;;;;;;;;;;;10.38;49.65;100679.69;6210457;23;19911;-85
2023/02/01 08:51:11;;;;;;;;;;;;;;;10.33;49.53;100677.75;6210465;23;20247;-84
2023/02/01 08:53:37;;;;;;;;;;;;;;;10.31;49.51;100685.25;6211081;23;19912;-83
2023/02/01 08:56:03;;;;;;;;;;;;;;;10.33;49.76;100674.28;6211706;23;19908;-83
2023/02/01 08:58:28;;;;;;;;;;;;;;;10.28;49.57;100673.16;6210929;23;19919;-83
2023/02/01 09:00:54;;;;;;;;;;;;;;;10.23;49.52;100669.59;6212119;23;19907;-83
2023/02/01 09:03:20;;;;;;;;;;;;;;;10.19;49.94;100673.78;6210499;23;19918;-83
2023/02/01 09:05:45;;;;;;;;;;;;;;;10.20;49.53;100664.69;6210883;23;19939;-83
2023/02/01 09:08:13;;;;;;;;;;;;;;;10.16;49.53;100666.25;6211151;23;19923;-84
2023/02/01 09:10:39;;;;;;;;;;;;;;;10.08;49.52;100662.16;6210970;23;20018;-84
2023/02/01 09:13:04;;;;;;;;;;;;;;;10.07;49.83;100657.84;6210377;23;19920;-83
2023/02/01 09:15:30;;;;;;;;;;;;;;;10.06;49.79;100660.78;6209123;23;19912;-83
2023/02/01 09:17:55;;;;;;;;;;;;;;;10.04;49.88;100662.88;6211279;23;19908;-83
2023/02/01 09:20:23;;;;;;;;;;;;;;;10.06;49.83;100668.81;6210619;23;20283;-84
2023/02/01 09:22:49;;;;;;;;;;;;;;;10.03;50.07;100671.94;6210185;23;19930;-84
2023/02/01 09:25:15;;;;;;;;;;;;;;;10.03;50.33;100669.28;6210669;23;19982;-83
2023/02/01 09:27:40;;;;;;;;;;;;;;;10.08;50.19;100667.50;6210164;23;19965;-85
2023/02/01 09:30:06;;;;;;;;;;;;;;;10.12;50.10;100668.63;6206811;23;19922;-84
2023/02/01 09:32:31;;;;;;;;;;;;;;;10.18;50.29;100674.84;6211265;23;19923;-83
2023/02/01 09:34:57;;;;;;;;;;;;;;;10.19;50.50;100671.91;6211869;23;20443;-83
2023/02/01 09:37:22;;;;;;;;;;;;;;;10.27;50.55;100681.44;6211374;23;19918;-84
2023/02/01 09:39:47;;;;;;;;;;;;;;;10.33;50.40;100659.03;6211707;23;19912;-83
2023/02/01 09:42:19;;;;;;;;;;;;;;;10.35;50.46;100678.31;6211537;23;19912;-83
2023/02/01 09:45:03;;;;;;;;;;;;;;;10.42;50.43;100676.28;6211616;23;19938;-83
2023/02/01 09:47:29;;;;;;;;;;;;;;;10.43;50.23;100688.63;6214195;23;19918;-82
2023/02/01 09:49:57;;;;;;;;;;;;;;;10.45;50.42;100683.00;6214068;23;20228;-81
2023/02/01 09:52:27;;;;;;;;;;;;;;;10.49;50.42;100684.94;6213881;23;19931;-82
2023/02/01 09:54:57;;;;;;;;;;;;;;;10.56;50.29;100688.22;6214379;23;19918;-82
2023/02/01 09:57:25;;;;;;;;;;;;;;;10.59;50.25;100674.38;6214141;23;19941;-83
2023/02/01 10:00:00;;;;;;;;;;;;;;;10.68;50.28;100674.72;6214525;23;20247;-83
2023/02/01 10:02:30;;;;;;;;;;;;;;;10.69;50.46;100662.13;6213959;23;19939;-83
2023/02/01 10:04:57;;;;;;;;;;;;;;;10.73;50.05;100672.09;6213372;23;19983;-82
2023/02/01 10:07:23;;;;;;;;;;;;;;;10.73;50.34;100664.06;6214164;23;20240;-82
2023/02/01 10:09:48;;;;;;;;;;;;;;;10.78;49.89;100660.63;6214515;23;19908;-83
2023/02/01 10:12:34;;;;;;;;;;;;;;;10.83;49.92;100668.72;6214755;23;20042;-83
2023/02/01 10:15:32;;;;;;;;;;;;;;;10.81;50.06;100671.66;6214104;23;19978;-84
2023/02/01 10:17:58;;;;;;;;;;;;;;;10.80;49.74;100670.03;6147730;23;20487;-82
2023/02/01 10:20:28;;;;;;;;;;;;;;;10.82;49.78;100675.97;6214118;23;19908;-83
2023/02/01 10:23:14;;;;;;;;;;;;;;;10.79;49.82;100675.66;6214189;23;20294;-82
2023/02/01 10:26:05;;;;;;;;;;;;;;;10.83;49.87;100692.84;6152049;23;19908;-83
2023/02/01 10:28:34;;;;;;;;;;;;;;;10.98;49.75;100693.03;6167214;23;19908;-83
2023/02/01 10:31:00;;;;;;;;;;;;;;;11.01;49.48;100697.88;6213997;23;19919;-82
2023/02/01 10:33:27;;;;;;;;;;;;;;;11.01;49.12;100699.75;6213562;23;20320;-83
2023/02/01 10:36:05;;;;;;;;;;;;;;;10.98;49.17;100702.94;6213938;23;19919;-83
2023/02/01 10:38:32;;;;;;;;;;;;;;;10.94;49.23;100701.78;6213713;23;20018;-82
2023/02/01 10:41:17;;;;;;;;;;;;;;;10.98;49.63;100703.75;6214472;23;19912;-82
2023/02/01 10:43:44;;;;;;;;;;;;;;;11.01;49.69;100703.25;6212098;23;19915;-83
2023/02/01 10:46:10;;;;;;;;;;;;;;;11.08;49.14;100703.03;6214120;23;20354;-82
2023/02/01 10:48:36;;;;;;;;;;;;;;;11.09;48.90;100702.78;6213887;23;19912;-82
2023/02/01 10:51:10;;;;;;;;;;;;;;;11.06;49.16;100699.78;6213643;23;19912;-83
2023/02/01 10:54:11;;;;;;;;;;;;;;;10.99;49.16;100694.63;6213336;23;19962;-82
2023/02/01 10:56:37;;;;;;;;;;;;;;;11.00;49.11;100701.63;6092233;23;19947;-82
2023/02/01 10:59:14;;;;;;;;;;;;;;;10.99;49.48;100699.19;6187062;23;19955;-83
2023/02/01 11:01:40;;;;;;;;;;;;;;;11.06;49.44;100681.84;6213452;23;19943;-83
2023/02/01 11:04:20;;;;;;;;;;;;;;;11.13;49.06;100692.34;6213365;23;19908;-83
2023/02/01 11:06:47;;;;;;;;;;;;;;;11.10;49.20;100693.66;6213879;23;19938;-83
2023/02/01 11:09:23;;;;;;;;;;;;;;;11.17;49.00;100696.16;6212953;23;19912;-82
2023/02/01 11:11:49;;;;;;;;;;;;;;;11.21;48.94;100702.63;6211443;23;19912;-83
2023/02/01 11:14:15;;;;;;;;;;;;;;;11.21;48.80;100705.31;6212695;23;20356;-81
2023/02/01 11:16:46;;;;;;;;;;;;;;;11.19;48.65;100700.22;6212700;23;19990;-83
2023/02/01 11:19:14;;;;;;;;;;;;;;;11.24;48.71;100706.69;6212183;23;19915;-83
2023/02/01 11:21:41;;;;;;;;;;;;;;;11.26;48.39;100700.00;6212718;23;19912;-83
2023/02/01 11:24:11;;;;;;;;;;;;;;;11.23;48.45;100697.00;6213246;23;19974;-81
2023/02/01 11:26:39;;;;;;;;;;;;;;;11.25;48.59;100697.56;6213381;23;19935;-82
2023/02/01 11:29:10;;;;;;;;;;;;;;;11.31;48.69;100693.88;6211218;23;19912;-82
2023/02/01 11:31:35;;;;;;;;;;;;;;;11.34;48.49;100685.34;6212832;23;19908;-81
2023/02/01 11:34:08;;;;;;;;;;;;;;;11.34;48.55;100686.16;6212228;23;19923;-82
2023/02/01 11:36:35;;;;;;;;;;;;;;;11.40;48.63;100678.94;6213063;23;19939;-81
2023/02/01 11:39:13;;;;;;;;;;;;;;;11.43;48.06;100681.09;6207627;23;20347;-81
2023/02/01 11:41:57;;;;;;;;;;;;;;;11.38;48.09;100686.44;6207101;23;19912;-81
2023/02/01 11:44:28;;;;;;;;;;;;;;;11.41;48.40;100685.94;6206335;23;19916;-82
2023/02/01 11:46:53;;;;;;;;;;;;;;;11.44;48.12;100682.72;6208441;23;19911;-82
2023/02/01 11:49:22;;;;;;;;;;;;;;;11.47;48.48;100664.25;6206591;23;20377;-82
2023/02/01 11:52:07;;;;;;;;;;;;;;;11.50;48.38;100668.31;6207468;23;19995;-82
2023/02/01 11:54:40;;;;;;;;;;;;;;;11.55;48.26;100657.63;6142685;23;20227;-83
2023/02/01 11:57:25;;;;;;;;;;;;;;;11.59;48.29;100666.75;6207953;23;19908;-82
2023/02/01 12:00:16;;;;;;;;;;;;;;;11.69;48.00;100666.03;6207582;23;20026;-82
2023/02/01 12:02:47;;;;;;;;;;;;;;;11.74;48.02;100661.50;6205880;23;20350;-82
2023/02/01 12:05:22;;;;;;;;;;;;;;;11.71;47.97;100656.66;6205886;23;19977;-83
2023/02/01 12:07:58;;;;;;;;;;;;;;;11.77;48.01;100660.19;6207083;23;19982;-82
2023/02/01 12:10:30;;;;;;;;;;;;;;;11.84;47.98;100659.97;6204364;23;19916;-83
2023/02/01 12:13:08;;;;;;;;;;;;;;;11.96;48.18;100660.59;6205480;23;19920;-83
2023/02/01 12:15:47;;;;;;;;;;;;;;;12.13;48.19;100658.56;6206572;23;19912;-82
2023/02/01 12:18:15;;;;;;;;;;;;;;;12.24;47.74;100672.88;6206858;23;19917;-82
2023/02/01 12:20:40;;;;;;;;;;;;;;;12.22;47.75;100657.00;6207383;23;19947;-83
2023/02/01 12:23:22;;;;;;;;;;;;;;;12.29;47.57;100657.56;6206181;23;20301;-82
2023/02/01 12:26:02;;;;;;;;;;;;;;;12.27;47.43;100651.66;6207389;23;20298;-83
2023/02/01 12:28:36;;;;;;;;;;;;;;;12.35;47.63;100663.78;6206916;23;19911;-82
2023/02/01 12:31:24;;;;;;;;;;;;;;;12.38;47.33;100653.31;6207316;23;20323;-82
2023/02/01 12:33:52;;;;;;;;;;;;;;;12.33;47.38;100655.97;6206759;23;19916;-82
2023/02/01 12:36:24;;;;;;;;;;;;;;;12.40;47.45;100650.38;6205346;23;19912;-82
2023/02/01 12:38:49;;;;;;;;;;;;;;;12.42;47.45;100658.19;6205469;23;19912;-82
2023/02/01 12:41:33;;;;;;;;;;;;;;;12.38;47.01;100645.25;6205890;23;19935;-82
2023/02/01 12:44:01;;;;;;;;;;;;;;;12.23;47.22;100633.66;6207583;23;19912;-82
2023/02/01 12:46:27;;;;;;;;;;;;;;;12.27;47.04;100635.53;6207353;23;19907;-83
2023/02/01 12:49:01;;;;;;;;;;;;;;;12.18;47.03;100630.91;6207373;23;19939;-83
2023/02/01 12:51:29;;;;;;;;;;;;;;;12.19;47.32;100627.97;6207883;23;19912;-82
2023/02/01 12:54:10;;;;;;;;;;;;;;;12.28;47.03;100629.09;6207804;23;19916;-83
2023/02/01 12:56:48;;;;;;;;;;;;;;;12.31;46.99;100620.50;6204353;23;20387;-82
2023/02/01 12:59:26;;;;;;;;;;;;;;;12.41;47.25;100622.44;6207180;23;19919;-82
2023/02/01 13:01:56;;;;;;;;;;;;;;;12.70;47.38;100612.03;6209416;23;19919;-82
2023/02/01 13:04:36;;;;;;;;;;;;;;;13.06;46.82;100601.34;6208931;23;19912;-83
2023/02/01 13:07:10;;;;;;;;;;;;;;;13.38;46.57;100590.34;6208634;23;19912;-82
2023/02/01 13:09:39;;;;;;;;;;;;;;;13.65;45.97;100590.88;6209897;23;19935;-83
2023/02/01 13:12:12;;;;;;;;;;;;;;;13.70;45.27;100595.44;6207830;23;19943;-82